CPX267 Details

Departure: Chicago O'Hare International Airport (KORD)
Arrival: Miami International Airport (KMIA) at N/A
Route: DENNT DARCY DREGS DONVE BNA J73 WYATT BULZI NICKI Q81 ENDEW JUULI SSCOT5
Notes:


Current Weather Information
KORD 171710Z 16004KT 6SM -RA SCT013 BKN055 OVC130 22/21 A2990 RMK AO2 TSE10 PRESFR P0001 T02220206 $
KMIA 171653Z 14008KT 110V190 10SM SCT035 BKN050 BKN120 BKN250 33/23 A3009 RMK AO2 LTG DSNT NW SLP191 CB DSNT NW T03330228